sensor_id;sensor_type;location;lat;lon;timestamp;P1;durP1;ratioP1;P2;durP2;ratioP2
64550;SDS011;74341;44.510;-123.270;2024-01-10T00:02:06;7.70;;;2.00;;
64550;SDS011;74341;44.510;-123.270;2024-01-10T00:04:32;8.10;;;1.63;;
64550;SDS011;74341;44.510;-123.270;2024-01-10T00:06:59;9.60;;;2.20;;
64550;SDS011;74341;44.510;-123.270;2024-01-10T00:09:25;5.63;;;1.52;;
64550;SDS011;74341;44.510;-123.270;2024-01-10T00:11:51;7.22;;;1.75;;
64550;SDS011;74341;44.510;-123.270;2024-01-10T00:14:17;5.18;;;1.35;;
64550;SDS011;74341;44.510;-123.270;2024-01-10T00:16:44;10.23;;;1.30;;
64550;SDS011;74341;44.510;-123.270;2024-01-10T00:19:10;6.93;;;1.40;;
64550;SDS011;74341;44.510;-123.270;2024-01-10T00:21:36;9.48;;;1.80;;
64550;SDS011;74341;44.510;-123.270;2024-01-10T00:24:03;8.07;;;1.58;;
64550;SDS011;74341;44.510;-123.270;2024-01-10T00:26:29;5.72;;;1.65;;
64550;SDS011;74341;44.510;-123.270;2024-01-10T00:28:55;10.10;;;2.67;;
64550;SDS011;74341;44.510;-123.270;2024-01-10T00:31:22;14.68;;;2.40;;
64550;SDS011;74341;44.510;-123.270;2024-01-10T00:33:48;10.68;;;1.98;;
64550;SDS011;74341;44.510;-123.270;2024-01-10T00:36:14;8.23;;;1.90;;
64550;SDS011;74341;44.510;-123.270;2024-01-10T00:38:40;8.30;;;2.15;;
64550;SDS011;74341;44.510;-123.270;2024-01-10T00:41:07;11.10;;;2.70;;
64550;SDS011;74341;44.510;-123.270;2024-01-10T00:43:33;4.78;;;1.60;;
64550;SDS011;74341;44.510;-123.270;2024-01-10T00:45:59;14.82;;;2.95;;
64550;SDS011;74341;44.510;-123.270;2024-01-10T00:48:25;15.60;;;2.65;;
64550;SDS011;74341;44.510;-123.270;2024-01-10T00:50:51;10.52;;;2.38;;
64550;SDS011;74341;44.510;-123.270;2024-01-10T00:53:18;6.90;;;2.72;;
64550;SDS011;74341;44.510;-123.270;2024-01-10T00:55:44;14.35;;;2.83;;
64550;SDS011;74341;44.510;-123.270;2024-01-10T00:58:10;15.82;;;2.95;;
64550;SDS011;74341;44.510;-123.270;2024-01-10T01:00:36;14.95;;;3.97;;
64550;SDS011;74341;44.510;-123.270;2024-01-10T01:03:03;13.80;;;2.58;;
64550;SDS011;74341;44.510;-123.270;2024-01-10T01:05:29;6.13;;;2.20;;
64550;SDS011;74341;44.510;-123.270;2024-01-10T01:07:55;12.10;;;3.35;;
64550;SDS011;74341;44.510;-123.270;2024-01-10T01:10:22;15.10;;;2.30;;
64550;SDS011;74341;44.510;-123.270;2024-01-10T01:12:48;11.95;;;1.88;;
64550;SDS011;74341;44.510;-123.270;2024-01-10T01:15:17;16.08;;;3.03;;
64550;SDS011;74341;44.510;-123.270;2024-01-10T01:17:44;16.02;;;3.05;;
64550;SDS011;74341;44.510;-123.270;2024-01-10T01:20:10;12.25;;;2.00;;
64550;SDS011;74341;44.510;-123.270;2024-01-10T01:22:37;15.00;;;3.00;;
64550;SDS011;74341;44.510;-123.270;2024-01-10T01:25:03;9.13;;;2.55;;
64550;SDS011;74341;44.510;-123.270;2024-01-10T01:27:29;12.30;;;2.28;;
64550;SDS011;74341;44.510;-123.270;2024-01-10T01:29:56;14.18;;;2.50;;
64550;SDS011;74341;44.510;-123.270;2024-01-10T01:32:22;13.32;;;2.60;;
64550;SDS011;74341;44.510;-123.270;2024-01-10T01:34:48;15.27;;;2.13;;
64550;SDS011;74341;44.510;-123.270;2024-01-10T01:37:15;7.53;;;1.77;;
64550;SDS011;74341;44.510;-123.270;2024-01-10T01:39:41;8.27;;;2.60;;
64550;SDS011;74341;44.510;-123.270;2024-01-10T01:42:07;12.35;;;2.80;;
64550;SDS011;74341;44.510;-123.270;2024-01-10T01:44:34;14.13;;;2.45;;
64550;SDS011;74341;44.510;-123.270;2024-01-10T01:47:00;13.10;;;3.10;;
64550;SDS011;74341;44.510;-123.270;2024-01-10T01:49:28;9.85;;;1.98;;
64550;SDS011;74341;44.510;-123.270;2024-01-10T01:51:54;16.38;;;3.65;;
64550;SDS011;74341;44.510;-123.270;2024-01-10T01:54:21;10.88;;;1.92;;
64550;SDS011;74341;44.510;-123.270;2024-01-10T01:56:48;15.95;;;2.80;;
64550;SDS011;74341;44.510;-123.270;2024-01-10T01:59:15;8.95;;;2.65;;
64550;SDS011;74341;44.510;-123.270;2024-01-10T02:01:41;15.27;;;2.63;;
64550;SDS011;74341;44.510;-123.270;2024-01-10T02:04:07;14.50;;;3.03;;
64550;SDS011;74341;44.510;-123.270;2024-01-10T02:06:34;5.13;;;1.95;;
64550;SDS011;74341;44.510;-123.270;2024-01-10T02:09:00;14.35;;;2.47;;
64550;SDS011;74341;44.510;-123.270;2024-01-10T02:11:28;8.93;;;3.08;;
64550;SDS011;74341;44.510;-123.270;2024-01-10T02:13:57;11.98;;;2.50;;
64550;SDS011;74341;44.510;-123.270;2024-01-10T02:16:24;9.23;;;2.42;;
64550;SDS011;74341;44.510;-123.270;2024-01-10T02:18:50;7.85;;;1.98;;
64550;SDS011;74341;44.510;-123.270;2024-01-10T02:21:20;10.65;;;2.47;;
64550;SDS011;74341;44.510;-123.270;2024-01-10T02:23:47;9.40;;;2.55;;
64550;SDS011;74341;44.510;-123.270;2024-01-10T02:26:14;11.18;;;1.73;;
64550;SDS011;74341;44.510;-123.270;2024-01-10T02:28:41;11.13;;;2.80;;
64550;SDS011;74341;44.510;-123.270;2024-01-10T02:31:07;16.50;;;2.63;;
64550;SDS011;74341;44.510;-123.270;2024-01-10T02:33:33;9.85;;;2.10;;
64550;SDS011;74341;44.510;-123.270;2024-01-10T02:36:00;14.50;;;2.30;;
64550;SDS011;74341;44.510;-123.270;2024-01-10T02:38:26;12.45;;;2.33;;
64550;SDS011;74341;44.510;-123.270;2024-01-10T02:40:52;8.88;;;1.92;;
64550;SDS011;74341;44.510;-123.270;2024-01-10T02:43:21;6.65;;;1.75;;
64550;SDS011;74341;44.510;-123.270;2024-01-10T02:45:47;10.75;;;2.13;;
64550;SDS011;74341;44.510;-123.270;2024-01-10T02:48:14;8.55;;;1.90;;
64550;SDS011;74341;44.510;-123.270;2024-01-10T02:50:40;10.50;;;2.17;;
64550;SDS011;74341;44.510;-123.270;2024-01-10T02:53:06;12.23;;;2.45;;
64550;SDS011;74341;44.510;-123.270;2024-01-10T02:55:32;12.85;;;2.50;;
64550;SDS011;74341;44.510;-123.270;2024-01-10T02:57:59;7.35;;;1.90;;
64550;SDS011;74341;44.510;-123.270;2024-01-10T03:00:25;11.10;;;1.98;;
64550;SDS011;74341;44.510;-123.270;2024-01-10T03:02:51;13.43;;;2.33;;
64550;SDS011;74341;44.510;-123.270;2024-01-10T03:05:17;15.65;;;2.05;;
64550;SDS011;74341;44.510;-123.270;2024-01-10T03:07:45;9.35;;;2.40;;
64550;SDS011;74341;44.510;-123.270;2024-01-10T03:10:13;16.45;;;2.95;;
64550;SDS011;74341;44.510;-123.270;2024-01-10T03:12:40;11.65;;;3.10;;
64550;SDS011;74341;44.510;-123.270;2024-01-10T03:15:06;12.40;;;2.33;;
64550;SDS011;74341;44.510;-123.270;2024-01-10T03:17:33;12.70;;;1.70;;
64550;SDS011;74341;44.510;-123.270;2024-01-10T03:20:00;8.00;;;2.72;;
64550;SDS011;74341;44.510;-123.270;2024-01-10T03:22:28;14.07;;;2.47;;
64550;SDS011;74341;44.510;-123.270;2024-01-10T03:24:56;5.90;;;1.63;;
64550;SDS011;74341;44.510;-123.270;2024-01-10T03:27:22;9.20;;;2.15;;
64550;SDS011;74341;44.510;-123.270;2024-01-10T03:29:48;10.20;;;2.13;;
64550;SDS011;74341;44.510;-123.270;2024-01-10T03:32:15;6.90;;;1.85;;
64550;SDS011;74341;44.510;-123.270;2024-01-10T03:34:41;13.63;;;1.98;;
64550;SDS011;74341;44.510;-123.270;2024-01-10T03:37:08;17.38;;;3.85;;
64550;SDS011;74341;44.510;-123.270;2024-01-10T03:39:34;13.15;;;3.53;;
64550;SDS011;74341;44.510;-123.270;2024-01-10T03:42:00;7.72;;;2.60;;
64550;SDS011;74341;44.510;-123.270;2024-01-10T03:44:27;5.75;;;1.27;;
64550;SDS011;74341;44.510;-123.270;2024-01-10T03:46:53;7.45;;;2.25;;
64550;SDS011;74341;44.510;-123.270;2024-01-10T03:49:19;4.60;;;2.05;;
64550;SDS011;74341;44.510;-123.270;2024-01-10T03:51:46;7.97;;;1.55;;
64550;SDS011;74341;44.510;-123.270;2024-01-10T03:54:12;8.65;;;1.48;;
64550;SDS011;74341;44.510;-123.270;2024-01-10T03:56:38;3.22;;;1.17;;
64550;SDS011;74341;44.510;-123.270;2024-01-10T03:59:05;6.07;;;1.55;;
64550;SDS011;74341;44.510;-123.270;2024-01-10T04:01:31;7.88;;;1.92;;
64550;SDS011;74341;44.510;-123.270;2024-01-10T04:03:57;9.88;;;2.08;;
64550;SDS011;74341;44.510;-123.270;2024-01-10T04:06:24;6.97;;;1.15;;
64550;SDS011;74341;44.510;-123.270;2024-01-10T04:08:50;3.67;;;1.02;;
64550;SDS011;74341;44.510;-123.270;2024-01-10T04:11:16;4.45;;;1.08;;
64550;SDS011;74341;44.510;-123.270;2024-01-10T04:13:42;4.20;;;1.38;;
64550;SDS011;74341;44.510;-123.270;2024-01-10T04:16:09;4.20;;;1.15;;
64550;SDS011;74341;44.510;-123.270;2024-01-10T04:18:36;6.72;;;1.90;;
64550;SDS011;74341;44.510;-123.270;2024-01-10T04:21:05;5.15;;;1.15;;
64550;SDS011;74341;44.510;-123.270;2024-01-10T04:23:32;3.03;;;1.20;;
64550;SDS011;74341;44.510;-123.270;2024-01-10T04:26:00;3.58;;;0.90;;
64550;SDS011;74341;44.510;-123.270;2024-01-10T04:28:28;2.95;;;1.23;;
64550;SDS011;74341;44.510;-123.270;2024-01-10T04:30:54;3.00;;;0.70;;
64550;SDS011;74341;44.510;-123.270;2024-01-10T04:33:24;4.35;;;0.98;;
64550;SDS011;74341;44.510;-123.270;2024-01-10T04:35:50;2.10;;;0.63;;
64550;SDS011;74341;44.510;-123.270;2024-01-10T04:38:16;2.38;;;0.82;;
64550;SDS011;74341;44.510;-123.270;2024-01-10T04:40:42;2.63;;;0.43;;
64550;SDS011;74341;44.510;-123.270;2024-01-10T04:43:09;0.20;;;0.20;;
64550;SDS011;74341;44.510;-123.270;2024-01-10T04:45:35;2.08;;;1.00;;
64550;SDS011;74341;44.510;-123.270;2024-01-10T04:48:02;3.13;;;1.30;;
64550;SDS011;74341;44.510;-123.270;2024-01-10T04:50:28;2.30;;;0.80;;
64550;SDS011;74341;44.510;-123.270;2024-01-10T04:52:54;2.60;;;0.90;;
64550;SDS011;74341;44.510;-123.270;2024-01-10T04:55:21;2.20;;;0.82;;
64550;SDS011;74341;44.510;-123.270;2024-01-10T04:57:47;0.43;;;0.43;;
64550;SDS011;74341;44.510;-123.270;2024-01-10T05:00:14;1.48;;;0.50;;
64550;SDS011;74341;44.510;-123.270;2024-01-10T05:02:40;0.93;;;0.30;;
64550;SDS011;74341;44.510;-123.270;2024-01-10T05:05:10;1.30;;;0.52;;
64550;SDS011;74341;44.510;-123.270;2024-01-10T05:07:36;0.30;;;0.30;;
64550;SDS011;74341;44.510;-123.270;2024-01-10T05:10:03;2.72;;;0.50;;
64550;SDS011;74341;44.510;-123.270;2024-01-10T05:12:30;2.13;;;0.52;;
64550;SDS011;74341;44.510;-123.270;2024-01-10T05:14:56;1.35;;;0.60;;
64550;SDS011;74341;44.510;-123.270;2024-01-10T05:17:23;0.75;;;0.40;;
64550;SDS011;74341;44.510;-123.270;2024-01-10T05:19:49;2.10;;;0.75;;
64550;SDS011;74341;44.510;-123.270;2024-01-10T05:22:16;2.13;;;0.60;;
64550;SDS011;74341;44.510;-123.270;2024-01-10T05:24:42;0.60;;;0.50;;
64550;SDS011;74341;44.510;-123.270;2024-01-10T05:27:09;1.15;;;0.38;;
64550;SDS011;74341;44.510;-123.270;2024-01-10T05:29:35;0.30;;;0.30;;
64550;SDS011;74341;44.510;-123.270;2024-01-10T05:32:03;2.05;;;0.45;;
64550;SDS011;74341;44.510;-123.270;2024-01-10T05:34:29;1.33;;;1.13;;
64550;SDS011;74341;44.510;-123.270;2024-01-10T05:36:56;0.50;;;0.50;;
64550;SDS011;74341;44.510;-123.270;2024-01-10T05:39:22;0.52;;;0.30;;
64550;SDS011;74341;44.510;-123.270;2024-01-10T05:41:49;0.38;;;0.38;;
64550;SDS011;74341;44.510;-123.270;2024-01-10T05:44:15;2.22;;;0.57;;
64550;SDS011;74341;44.510;-123.270;2024-01-10T05:46:42;1.55;;;0.50;;
64550;SDS011;74341;44.510;-123.270;2024-01-10T05:49:09;0.50;;;0.50;;
64550;SDS011;74341;44.510;-123.270;2024-01-10T05:51:37;1.65;;;0.70;;
64550;SDS011;74341;44.510;-123.270;2024-01-10T05:54:04;0.35;;;0.28;;
64550;SDS011;74341;44.510;-123.270;2024-01-10T05:56:30;1.58;;;0.57;;
64550;SDS011;74341;44.510;-123.270;2024-01-10T05:58:56;1.02;;;0.40;;
64550;SDS011;74341;44.510;-123.270;2024-01-10T06:01:23;1.00;;;0.47;;
64550;SDS011;74341;44.510;-123.270;2024-01-10T06:03:49;1.10;;;0.20;;
64550;SDS011;74341;44.510;-123.270;2024-01-10T06:06:15;0.60;;;0.47;;
64550;SDS011;74341;44.510;-123.270;2024-01-10T06:08:42;0.20;;;0.20;;
64550;SDS011;74341;44.510;-123.270;2024-01-10T06:11:08;0.13;;;0.13;;
64550;SDS011;74341;44.510;-123.270;2024-01-10T06:13:35;0.00;;;0.00;;
64550;SDS011;74341;44.510;-123.270;2024-01-10T06:16:02;0.20;;;0.13;;
64550;SDS011;74341;44.510;-123.270;2024-01-10T06:18:30;0.63;;;0.20;;
64550;SDS011;74341;44.510;-123.270;2024-01-10T06:20:56;2.17;;;0.55;;
64550;SDS011;74341;44.510;-123.270;2024-01-10T06:23:23;0.13;;;0.13;;
64550;SDS011;74341;44.510;-123.270;2024-01-10T06:25:50;0.10;;;0.08;;
64550;SDS011;74341;44.510;-123.270;2024-01-10T06:28:16;0.10;;;0.10;;
64550;SDS011;74341;44.510;-123.270;2024-01-10T06:30:42;0.08;;;0.00;;
64550;SDS011;74341;44.510;-123.270;2024-01-10T06:33:09;0.05;;;0.05;;
64550;SDS011;74341;44.510;-123.270;2024-01-10T06:35:35;0.38;;;0.10;;
64550;SDS011;74341;44.510;-123.270;2024-01-10T06:38:02;0.03;;;0.00;;
64550;SDS011;74341;44.510;-123.270;2024-01-10T06:40:29;1.08;;;0.10;;
64550;SDS011;74341;44.510;-123.270;2024-01-10T06:42:55;0.08;;;0.00;;
64550;SDS011;74341;44.510;-123.270;2024-01-10T06:45:22;2.88;;;0.93;;
64550;SDS011;74341;44.510;-123.270;2024-01-10T06:47:48;3.55;;;0.88;;
64550;SDS011;74341;44.510;-123.270;2024-01-10T06:50:14;5.28;;;1.23;;
64550;SDS011;74341;44.510;-123.270;2024-01-10T06:52:41;3.58;;;1.35;;
64550;SDS011;74341;44.510;-123.270;2024-01-10T06:55:07;4.57;;;0.77;;
64550;SDS011;74341;44.510;-123.270;2024-01-10T06:57:34;2.88;;;1.27;;
64550;SDS011;74341;44.510;-123.270;2024-01-10T07:00:00;1.75;;;1.00;;
64550;SDS011;74341;44.510;-123.270;2024-01-10T07:02:28;4.03;;;1.10;;
64550;SDS011;74341;44.510;-123.270;2024-01-10T07:04:55;1.40;;;0.68;;
64550;SDS011;74341;44.510;-123.270;2024-01-10T07:07:21;2.70;;;0.85;;
64550;SDS011;74341;44.510;-123.270;2024-01-10T07:09:48;3.05;;;0.85;;
64550;SDS011;74341;44.510;-123.270;2024-01-10T07:12:14;7.88;;;1.45;;
64550;SDS011;74341;44.510;-123.270;2024-01-10T07:14:41;6.18;;;1.90;;
64550;SDS011;74341;44.510;-123.270;2024-01-10T07:17:07;5.40;;;1.58;;
64550;SDS011;74341;44.510;-123.270;2024-01-10T07:19:34;4.07;;;0.90;;
64550;SDS011;74341;44.510;-123.270;2024-01-10T07:22:00;5.47;;;0.75;;
64550;SDS011;74341;44.510;-123.270;2024-01-10T07:24:26;2.53;;;0.85;;
64550;SDS011;74341;44.510;-123.270;2024-01-10T07:26:53;1.70;;;0.40;;
64550;SDS011;74341;44.510;-123.270;2024-01-10T07:29:19;2.60;;;0.73;;
64550;SDS011;74341;44.510;-123.270;2024-01-10T07:31:45;0.52;;;0.20;;
64550;SDS011;74341;44.510;-123.270;2024-01-10T07:34:11;2.47;;;0.73;;
64550;SDS011;74341;44.510;-123.270;2024-01-10T07:36:41;2.13;;;0.90;;
64550;SDS011;74341;44.510;-123.270;2024-01-10T07:39:08;3.20;;;0.80;;
64550;SDS011;74341;44.510;-123.270;2024-01-10T07:41:34;1.55;;;0.30;;
64550;SDS011;74341;44.510;-123.270;2024-01-10T07:44:01;1.30;;;0.60;;
64550;SDS011;74341;44.510;-123.270;2024-01-10T07:46:28;2.92;;;0.63;;
64550;SDS011;74341;44.510;-123.270;2024-01-10T07:48:55;1.02;;;0.68;;
64550;SDS011;74341;44.510;-123.270;2024-01-10T07:51:21;1.75;;;0.52;;
64550;SDS011;74341;44.510;-123.270;2024-01-10T07:53:47;3.55;;;0.60;;
64550;SDS011;74341;44.510;-123.270;2024-01-10T07:56:14;2.05;;;0.80;;
64550;SDS011;74341;44.510;-123.270;2024-01-10T07:58:40;4.47;;;1.60;;
64550;SDS011;74341;44.510;-123.270;2024-01-10T08:01:06;2.70;;;1.48;;
64550;SDS011;74341;44.510;-123.270;2024-01-10T08:03:35;2.05;;;1.30;;
64550;SDS011;74341;44.510;-123.270;2024-01-10T08:06:02;1.13;;;0.65;;
64550;SDS011;74341;44.510;-123.270;2024-01-10T08:08:28;2.42;;;1.10;;
64550;SDS011;74341;44.510;-123.270;2024-01-10T08:10:55;0.70;;;0.20;;
64550;SDS011;74341;44.510;-123.270;2024-01-10T08:13:22;1.85;;;0.55;;
64550;SDS011;74341;44.510;-123.270;2024-01-10T08:15:48;1.30;;;0.30;;
64550;SDS011;74341;44.510;-123.270;2024-01-10T08:18:14;0.90;;;0.28;;
64550;SDS011;74341;44.510;-123.270;2024-01-10T08:20:41;0.17;;;0.17;;
64550;SDS011;74341;44.510;-123.270;2024-01-10T08:23:08;2.58;;;0.70;;
64550;SDS011;74341;44.510;-123.270;2024-01-10T08:25:34;0.80;;;0.47;;
64550;SDS011;74341;44.510;-123.270;2024-01-10T08:28:00;2.47;;;0.70;;
64550;SDS011;74341;44.510;-123.270;2024-01-10T08:30:26;1.55;;;0.50;;
64550;SDS011;74341;44.510;-123.270;2024-01-10T08:32:53;0.20;;;0.20;;
64550;SDS011;74341;44.510;-123.270;2024-01-10T08:35:19;2.13;;;0.32;;
64550;SDS011;74341;44.510;-123.270;2024-01-10T08:37:45;0.52;;;0.22;;
64550;SDS011;74341;44.510;-123.270;2024-01-10T08:40:12;0.85;;;0.15;;
64550;SDS011;74341;44.510;-123.270;2024-01-10T08:42:41;3.35;;;0.60;;
64550;SDS011;74341;44.510;-123.270;2024-01-10T08:45:07;1.27;;;0.20;;
64550;SDS011;74341;44.510;-123.270;2024-01-10T08:47:36;0.65;;;0.30;;
64550;SDS011;74341;44.510;-123.270;2024-01-10T08:50:03;1.77;;;0.43;;
64550;SDS011;74341;44.510;-123.270;2024-01-10T08:52:33;2.17;;;0.22;;
64550;SDS011;74341;44.510;-123.270;2024-01-10T08:55:00;0.10;;;0.10;;
64550;SDS011;74341;44.510;-123.270;2024-01-10T08:57:26;2.97;;;0.47;;
64550;SDS011;74341;44.510;-123.270;2024-01-10T08:59:53;1.58;;;0.50;;
64550;SDS011;74341;44.510;-123.270;2024-01-10T09:02:20;6.90;;;2.25;;
64550;SDS011;74341;44.510;-123.270;2024-01-10T09:04:49;1.25;;;0.88;;
64550;SDS011;74341;44.510;-123.270;2024-01-10T09:07:15;0.73;;;0.57;;
64550;SDS011;74341;44.510;-123.270;2024-01-10T09:09:43;1.52;;;0.77;;
64550;SDS011;74341;44.510;-123.270;2024-01-10T09:12:10;1.65;;;0.50;;
64550;SDS011;74341;44.510;-123.270;2024-01-10T09:14:36;2.53;;;1.40;;
64550;SDS011;74341;44.510;-123.270;2024-01-10T09:17:03;2.03;;;0.88;;
64550;SDS011;74341;44.510;-123.270;2024-01-10T09:19:30;4.63;;;2.03;;
64550;SDS011;74341;44.510;-123.270;2024-01-10T09:21:56;4.32;;;1.67;;
64550;SDS011;74341;44.510;-123.270;2024-01-10T09:24:23;1.98;;;1.65;;
64550;SDS011;74341;44.510;-123.270;2024-01-10T09:26:52;2.13;;;1.52;;
64550;SDS011;74341;44.510;-123.270;2024-01-10T09:31:45;4.85;;;1.98;;
64550;SDS011;74341;44.510;-123.270;2024-01-10T09:34:11;2.70;;;1.65;;
64550;SDS011;74341;44.510;-123.270;2024-01-10T09:36:38;2.50;;;1.00;;
64550;SDS011;74341;44.510;-123.270;2024-01-10T09:39:04;4.70;;;1.08;;
64550;SDS011;74341;44.510;-123.270;2024-01-10T09:41:37;2.88;;;1.17;;
64550;SDS011;74341;44.510;-123.270;2024-01-10T09:44:11;1.95;;;1.08;;
64550;SDS011;74341;44.510;-123.270;2024-01-10T09:46:38;6.03;;;1.52;;
64550;SDS011;74341;44.510;-123.270;2024-01-10T09:49:09;4.47;;;1.63;;
64550;SDS011;74341;44.510;-123.270;2024-01-10T09:51:36;3.33;;;1.10;;
64550;SDS011;74341;44.510;-123.270;2024-01-10T09:56:32;6.35;;;1.35;;
64550;SDS011;74341;44.510;-123.270;2024-01-10T09:58:58;1.08;;;0.98;;
64550;SDS011;74341;44.510;-123.270;2024-01-10T10:01:31;3.47;;;0.77;;
64550;SDS011;74341;44.510;-123.270;2024-01-10T10:03:58;3.15;;;1.05;;
64550;SDS011;74341;44.510;-123.270;2024-01-10T10:06:24;0.77;;;0.47;;
64550;SDS011;74341;44.510;-123.270;2024-01-10T10:08:51;1.42;;;0.75;;
64550;SDS011;74341;44.510;-123.270;2024-01-10T10:11:17;1.45;;;1.08;;
64550;SDS011;74341;44.510;-123.270;2024-01-10T10:13:43;0.90;;;0.80;;
64550;SDS011;74341;44.510;-123.270;2024-01-10T10:16:10;0.85;;;0.60;;
64550;SDS011;74341;44.510;-123.270;2024-01-10T10:21:12;2.45;;;1.13;;
64550;SDS011;74341;44.510;-123.270;2024-01-10T10:23:41;2.72;;;1.25;;
64550;SDS011;74341;44.510;-123.270;2024-01-10T10:26:15;1.35;;;0.68;;
64550;SDS011;74341;44.510;-123.270;2024-01-10T10:28:46;2.70;;;0.77;;
64550;SDS011;74341;44.510;-123.270;2024-01-10T10:31:13;4.57;;;1.73;;
64550;SDS011;74341;44.510;-123.270;2024-01-10T10:33:41;4.25;;;1.33;;
64550;SDS011;74341;44.510;-123.270;2024-01-10T10:36:13;3.08;;;0.50;;
64550;SDS011;74341;44.510;-123.270;2024-01-10T10:38:39;0.95;;;0.57;;
64550;SDS011;74341;44.510;-123.270;2024-01-10T10:41:06;2.70;;;0.50;;
64550;SDS011;74341;44.510;-123.270;2024-01-10T10:43:36;4.38;;;0.55;;
64550;SDS011;74341;44.510;-123.270;2024-01-10T10:46:04;3.40;;;0.45;;
64550;SDS011;74341;44.510;-123.270;2024-01-10T10:48:35;2.65;;;0.68;;
64550;SDS011;74341;44.510;-123.270;2024-01-10T10:51:03;3.13;;;1.08;;
64550;SDS011;74341;44.510;-123.270;2024-01-10T10:53:34;2.47;;;0.65;;
64550;SDS011;74341;44.510;-123.270;2024-01-10T10:56:05;3.85;;;1.75;;
64550;SDS011;74341;44.510;-123.270;2024-01-10T10:58:44;1.08;;;1.00;;
64550;SDS011;74341;44.510;-123.270;2024-01-10T11:01:12;5.18;;;2.10;;
64550;SDS011;74341;44.510;-123.270;2024-01-10T11:03:40;6.57;;;1.55;;
64550;SDS011;74341;44.510;-123.270;2024-01-10T11:06:12;4.97;;;1.38;;
64550;SDS011;74341;44.510;-123.270;2024-01-10T11:08:46;4.43;;;0.98;;
64550;SDS011;74341;44.510;-123.270;2024-01-10T11:21:48;2.15;;;0.68;;
64550;SDS011;74341;44.510;-123.270;2024-01-10T11:24:16;4.00;;;0.98;;
64550;SDS011;74341;44.510;-123.270;2024-01-10T11:26:45;2.30;;;0.60;;
64550;SDS011;74341;44.510;-123.270;2024-01-10T11:29:11;3.45;;;1.83;;
64550;SDS011;74341;44.510;-123.270;2024-01-10T11:31:38;3.42;;;0.52;;
64550;SDS011;74341;44.510;-123.270;2024-01-10T11:34:05;1.80;;;0.75;;
64550;SDS011;74341;44.510;-123.270;2024-01-10T11:36:32;1.23;;;0.70;;
64550;SDS011;74341;44.510;-123.270;2024-01-10T11:38:59;0.70;;;0.43;;
64550;SDS011;74341;44.510;-123.270;2024-01-10T11:41:32;5.13;;;1.23;;
64550;SDS011;74341;44.510;-123.270;2024-01-10T11:49:17;1.75;;;0.80;;
64550;SDS011;74341;44.510;-123.270;2024-01-10T11:51:45;5.18;;;0.90;;
64550;SDS011;74341;44.510;-123.270;2024-01-10T11:57:19;3.92;;;0.75;;
64550;SDS011;74341;44.510;-123.270;2024-01-10T12:04:43;1.08;;;0.32;;
64550;SDS011;74341;44.510;-123.270;2024-01-10T12:07:11;1.08;;;0.60;;
64550;SDS011;74341;44.510;-123.270;2024-01-10T12:09:38;2.83;;;0.73;;
64550;SDS011;74341;44.510;-123.270;2024-01-10T12:12:05;2.22;;;0.63;;
64550;SDS011;74341;44.510;-123.270;2024-01-10T12:14:32;1.00;;;0.52;;
64550;SDS011;74341;44.510;-123.270;2024-01-10T12:17:00;2.30;;;0.60;;
64550;SDS011;74341;44.510;-123.270;2024-01-10T12:19:29;4.60;;;0.77;;
64550;SDS011;74341;44.510;-123.270;2024-01-10T12:21:56;2.28;;;0.60;;
64550;SDS011;74341;44.510;-123.270;2024-01-10T12:24:23;12.20;;;0.63;;
64550;SDS011;74341;44.510;-123.270;2024-01-10T12:26:53;1.80;;;1.02;;
64550;SDS011;74341;44.510;-123.270;2024-01-10T12:29:20;1.08;;;0.77;;
64550;SDS011;74341;44.510;-123.270;2024-01-10T12:31:48;1.30;;;0.40;;
64550;SDS011;74341;44.510;-123.270;2024-01-10T12:34:14;2.42;;;0.47;;
64550;SDS011;74341;44.510;-123.270;2024-01-10T12:36:41;2.65;;;0.60;;
64550;SDS011;74341;44.510;-123.270;2024-01-10T12:39:09;0.82;;;0.20;;
64550;SDS011;74341;44.510;-123.270;2024-01-10T12:41:37;0.75;;;0.63;;
64550;SDS011;74341;44.510;-123.270;2024-01-10T12:44:03;6.10;;;1.27;;
64550;SDS011;74341;44.510;-123.270;2024-01-10T12:46:31;0.52;;;0.20;;
64550;SDS011;74341;44.510;-123.270;2024-01-10T12:49:02;2.15;;;0.80;;
64550;SDS011;74341;44.510;-123.270;2024-01-10T12:51:30;1.98;;;0.65;;
64550;SDS011;74341;44.510;-123.270;2024-01-10T12:53:59;2.33;;;0.75;;
64550;SDS011;74341;44.510;-123.270;2024-01-10T12:58:53;2.03;;;0.35;;
64550;SDS011;74341;44.510;-123.270;2024-01-10T13:01:23;3.15;;;0.95;;
64550;SDS011;74341;44.510;-123.270;2024-01-10T13:03:50;1.95;;;0.60;;
64550;SDS011;74341;44.510;-123.270;2024-01-10T13:06:18;1.88;;;0.43;;
64550;SDS011;74341;44.510;-123.270;2024-01-10T13:08:48;3.70;;;0.60;;
64550;SDS011;74341;44.510;-123.270;2024-01-10T13:11:14;1.17;;;0.40;;
64550;SDS011;74341;44.510;-123.270;2024-01-10T13:13:41;2.72;;;0.93;;
64550;SDS011;74341;44.510;-123.270;2024-01-10T13:16:10;4.10;;;0.52;;
64550;SDS011;74341;44.510;-123.270;2024-01-10T13:18:38;4.20;;;0.80;;
64550;SDS011;74341;44.510;-123.270;2024-01-10T13:21:05;1.73;;;0.75;;
64550;SDS011;74341;44.510;-123.270;2024-01-10T13:23:34;2.00;;;0.35;;
64550;SDS011;74341;44.510;-123.270;2024-01-10T13:26:01;3.83;;;0.35;;
64550;SDS011;74341;44.510;-123.270;2024-01-10T13:28:28;4.72;;;0.98;;
64550;SDS011;74341;44.510;-123.270;2024-01-10T13:30:55;1.13;;;0.40;;
64550;SDS011;74341;44.510;-123.270;2024-01-10T13:33:24;1.60;;;0.43;;
64550;SDS011;74341;44.510;-123.270;2024-01-10T13:35:53;5.15;;;1.02;;
64550;SDS011;74341;44.510;-123.270;2024-01-10T13:38:19;7.90;;;0.75;;
64550;SDS011;74341;44.510;-123.270;2024-01-10T13:40:46;2.10;;;1.02;;
64550;SDS011;74341;44.510;-123.270;2024-01-10T13:43:12;6.68;;;1.63;;
64550;SDS011;74341;44.510;-123.270;2024-01-10T13:45:40;3.72;;;1.20;;
64550;SDS011;74341;44.510;-123.270;2024-01-10T13:48:06;4.72;;;0.77;;
64550;SDS011;74341;44.510;-123.270;2024-01-10T13:50:33;4.32;;;0.85;;
64550;SDS011;74341;44.510;-123.270;2024-01-10T13:52:59;2.33;;;0.52;;
64550;SDS011;74341;44.510;-123.270;2024-01-10T13:55:25;1.45;;;0.38;;
64550;SDS011;74341;44.510;-123.270;2024-01-10T13:57:51;2.88;;;0.90;;
64550;SDS011;74341;44.510;-123.270;2024-01-10T14:00:19;3.10;;;1.15;;
64550;SDS011;74341;44.510;-123.270;2024-01-10T14:02:46;6.40;;;1.30;;
64550;SDS011;74341;44.510;-123.270;2024-01-10T14:05:12;2.78;;;1.38;;
64550;SDS011;74341;44.510;-123.270;2024-01-10T14:07:39;3.67;;;1.00;;
64550;SDS011;74341;44.510;-123.270;2024-01-10T14:10:09;2.13;;;1.05;;
64550;SDS011;74341;44.510;-123.270;2024-01-10T14:12:39;3.03;;;0.77;;
64550;SDS011;74341;44.510;-123.270;2024-01-10T14:15:05;5.20;;;0.77;;
64550;SDS011;74341;44.510;-123.270;2024-01-10T14:17:32;2.67;;;0.38;;
64550;SDS011;74341;44.510;-123.270;2024-01-10T14:19:58;3.72;;;1.30;;
64550;SDS011;74341;44.510;-123.270;2024-01-10T14:22:25;5.55;;;1.77;;
64550;SDS011;74341;44.510;-123.270;2024-01-10T14:24:51;7.72;;;1.85;;
64550;SDS011;74341;44.510;-123.270;2024-01-10T14:27:19;1.17;;;0.75;;
64550;SDS011;74341;44.510;-123.270;2024-01-10T14:29:46;3.38;;;1.60;;
64550;SDS011;74341;44.510;-123.270;2024-01-10T14:32:13;8.63;;;2.30;;
64550;SDS011;74341;44.510;-123.270;2024-01-10T14:34:40;6.75;;;3.22;;
64550;SDS011;74341;44.510;-123.270;2024-01-10T14:37:07;6.60;;;1.67;;
64550;SDS011;74341;44.510;-123.270;2024-01-10T14:39:34;7.15;;;2.00;;